Time;durP1;ratioP1;P1;durP2;ratioP2;P2;SDS_P1;SDS_P2;PMS_P1;PMS_P2;Temp;Humidity;BMP_temperature;BMP_pressure;BME280_temperature;BME280_humidity;BME280_pressure;Samples;Min_cycle;Max_cycle;Signal;HPM_P1;HPM_P2
2022/08/04 00:00:43;;;;;;;20.85;3.22;;;;;;;26.45;57.92;99373.28;7306421;19;129470;-31
2022/08/04 00:03:21;;;;;;;25.63;3.30;;;;;;;26.44;58.11;99365.56;7308879;19;129790;-34
2022/08/04 00:06:01;;;;;;;18.80;3.08;;;;;;;26.44;57.42;99366.41;7308784;19;129266;-30
2022/08/04 00:08:38;;;;;;;28.40;3.72;;;;;;;26.46;58.50;99361.75;7308944;19;129457;-31
2022/08/04 00:11:07;;;;;;;43.95;5.38;;;;;;;26.43;57.49;99362.09;7302684;19;130554;-36
2022/08/04 00:13:38;;;;;;;26.23;3.63;;;;;;;26.42;57.98;99365.75;7310899;19;129848;-36
2022/08/04 00:16:07;;;;;;;29.50;3.80;;;;;;;26.44;58.02;99363.75;7307112;19;129832;-37
2022/08/04 00:18:53;;;;;;;19.25;2.78;;;;;;;26.45;58.21;99368.03;7308669;19;129095;-34
2022/08/04 00:21:22;;;;;;;28.15;3.90;;;;;;;26.44;58.11;99363.75;7309422;19;130160;-31
2022/08/04 00:23:48;;;;;;;35.30;4.03;;;;;;;26.42;56.73;99363.09;7299509;19;129468;-44
2022/08/04 00:26:16;;;;;;;27.17;3.80;;;;;;;26.44;58.18;99366.41;7296987;19;129349;-38
2022/08/04 00:28:43;;;;;;;26.85;3.60;;;;;;;26.45;57.47;99368.03;7308878;19;128908;-34
2022/08/04 00:31:13;;;;;;;28.85;3.72;;;;;;;26.45;58.26;99373.28;7302214;19;130254;-34
2022/08/04 00:33:43;;;;;;;17.45;2.63;;;;;;;26.36;57.32;99361.16;7310822;19;130566;-33
2022/08/04 00:36:11;;;;;;;69.00;7.72;;;;;;;26.45;57.57;99372.47;7303007;19;130152;-35
2022/08/04 00:38:39;;;;;;;17.02;2.67;;;;;;;26.44;58.34;99369.03;7306220;19;129652;-36
2022/08/04 00:41:05;;;;;;;22.35;3.15;;;;;;;26.45;57.13;99378.56;7315747;19;129148;-32
2022/08/04 00:43:50;;;;;;;16.77;2.50;;;;;;;26.43;57.69;99364.75;7314198;19;130096;-32
2022/08/04 00:46:27;;;;;;;16.40;2.60;;;;;;;26.44;56.94;99366.41;7316287;19;128908;-36
2022/08/04 00:49:02;;;;;;;29.67;3.33;;;;;;;26.46;57.81;99366.22;7312617;19;129782;-38
2022/08/04 00:51:39;;;;;;;24.25;3.67;;;;;;;26.43;57.17;99359.47;7316544;19;129148;-34
2022/08/04 00:54:17;;;;;;;31.63;3.80;;;;;;;26.46;58.03;99369.66;7310992;19;129202;-33
2022/08/04 00:57:01;;;;;;;22.30;3.10;;;;;;;26.46;57.09;99374.13;7314950;19;130325;-29
2022/08/04 00:59:51;;;;;;;9.63;2.08;;;;;;;26.38;58.29;99350.44;7310029;19;129035;-34
2022/08/04 01:02:30;;;;;;;15.35;2.63;;;;;;;26.42;58.33;99360.47;7315684;19;130095;-32
2022/08/04 01:05:03;;;;;;;19.65;3.00;;;;;;;26.45;56.86;99360.13;7313477;19;130313;-31
2022/08/04 01:07:39;;;;;;;23.77;3.38;;;;;;;26.45;58.00;99368.03;7312346;19;129676;-33
2022/08/04 01:10:18;;;;;;;21.17;3.33;;;;;;;26.46;58.59;99363.59;7311168;19;130056;-34
2022/08/04 01:12:47;;;;;;;21.58;3.17;;;;;;;26.44;57.88;99361.13;7313326;19;129814;-34
2022/08/04 01:15:25;;;;;;;22.77;3.28;;;;;;;26.45;58.26;99368.03;7315595;19;131737;-32
2022/08/04 01:18:05;;;;;;;23.85;3.33;;;;;;;26.47;58.42;99366.03;7310182;19;129193;-34
2022/08/04 01:20:58;;;;;;;34.65;4.38;;;;;;;26.45;58.00;99369.81;7312615;19;129553;-32
2022/08/04 01:23:23;;;;;;;27.98;3.75;;;;;;;26.43;57.37;99367.38;7312311;19;129613;-34
2022/08/04 01:26:10;;;;;;;24.23;3.43;;;;;;;26.41;58.50;99356.19;7315953;19;130801;-33
2022/08/04 01:28:45;;;;;;;26.88;4.03;;;;;;;26.44;56.93;99361.13;7308232;19;129808;-31
2022/08/04 01:31:38;;;;;;;18.35;2.72;;;;;;;26.39;58.21;99355.56;7313539;19;129139;-36
2022/08/04 01:34:08;;;;;;;15.27;2.67;;;;;;;26.36;58.15;99347.97;7316358;19;129546;-31
2022/08/04 01:36:34;;;;;;;20.23;3.28;;;;;;;26.42;56.87;99364.91;7312469;19;129715;-28
2022/08/04 01:42:01;;;;;;;24.02;3.30;;;;;;;26.43;56.80;99370.00;7305844;19;130676;-33
2022/08/04 01:44:30;;;;;;;18.55;3.08;;;;;;;26.42;56.74;99370.19;7315726;19;129567;-32
2022/08/04 01:46:56;;;;;;;27.98;3.70;;;;;;;26.43;57.11;99369.19;7308306;19;129727;-33
2022/08/04 01:49:28;;;;;;;15.67;2.53;;;;;;;26.43;57.83;99363.91;7313412;19;129847;-33
2022/08/04 01:51:55;;;;;;;29.38;3.97;;;;;;;26.42;56.43;99367.56;7311352;19;130095;-32
2022/08/04 01:54:21;;;;;;;19.13;2.83;;;;;;;26.42;56.98;99364.91;7314814;19;131859;-31
2022/08/04 01:56:49;;;;;;;22.33;3.70;;;;;;;26.41;57.35;99365.91;7307384;19;130428;-39
2022/08/04 01:59:17;;;;;;;22.75;3.28;;;;;;;26.40;57.37;99365.09;7312201;19;129060;-31
2022/08/04 02:01:42;;;;;;;31.23;4.35;;;;;;;26.40;57.17;99357.19;7311835;19;130503;-41
2022/08/04 02:04:13;;;;;;;35.77;4.30;;;;;;;26.42;57.25;99368.38;7312328;19;129871;-35
2022/08/04 02:06:44;;;;;;;35.63;5.22;;;;;;;26.44;57.32;99366.41;7311833;19;129236;-32
2022/08/04 02:09:23;;;;;;;34.70;4.93;;;;;;;26.43;57.77;99362.09;7308682;19;129386;-34
2022/08/04 02:12:00;;;;;;;30.45;4.30;;;;;;;26.42;57.21;99357.00;7312571;19;129285;-33
2022/08/04 02:14:41;;;;;;;17.45;3.10;;;;;;;26.42;57.10;99357.00;7313702;19;129971;-33
2022/08/04 02:17:27;;;;;;;14.90;2.80;;;;;;;26.46;57.86;99356.47;7311187;19;129959;-32
2022/08/04 02:20:05;;;;;;;29.17;4.22;;;;;;;26.46;56.92;99358.31;7309459;19;129343;-36
2022/08/04 02:22:34;;;;;;;21.30;3.35;;;;;;;26.45;57.28;99354.84;7314072;19;129431;-31
2022/08/04 02:25:09;;;;;;;12.95;2.83;;;;;;;26.45;56.55;99348.75;7312653;19;129836;-36
2022/08/04 02:28:08;;;;;;;24.63;3.65;;;;;;;26.48;57.53;99351.00;7312678;19;131497;-35
2022/08/04 02:30:39;;;;;;;20.00;3.47;;;;;;;26.47;56.71;99347.59;7312118;19;130787;-34
2022/08/04 02:33:07;;;;;;;19.33;3.42;;;;;;;26.47;56.53;99350.22;7313490;19;129122;-34
2022/08/04 02:35:37;;;;;;;38.85;4.97;;;;;;;26.48;57.04;99348.38;7312355;19;130000;-34
2022/08/04 02:38:29;;;;;;;27.45;4.38;;;;;;;26.52;56.69;99347.88;7307668;19;130749;-34
2022/08/04 02:40:59;;;;;;;16.05;3.03;;;;;;;26.48;56.01;99349.22;7313475;19;129872;-32
2022/08/04 02:43:26;;;;;;;28.55;3.70;;;;;;;26.47;56.79;99338.84;7308199;19;129744;-34
2022/08/04 02:45:55;;;;;;;20.45;3.38;;;;;;;26.48;56.59;99338.66;7311314;19;131797;-31
2022/08/04 02:48:23;;;;;;;30.40;4.80;;;;;;;26.48;57.17;99345.75;7307917;19;129373;-43
2022/08/04 02:50:51;;;;;;;25.88;3.85;;;;;;;26.39;56.24;99323.91;7313027;19;128903;-37
2022/08/04 02:53:20;;;;;;;14.73;2.83;;;;;;;26.42;57.19;99325.38;7311082;19;130237;-33
2022/08/04 02:55:47;;;;;;;51.65;5.57;;;;;;;26.47;56.42;99330.94;7313041;19;129876;-33
2022/08/04 02:58:15;;;;;;;54.40;7.00;;;;;;;26.42;57.07;99323.56;7312745;19;130739;-36
2022/08/04 03:00:43;;;;;;;28.00;3.85;;;;;;;26.47;56.59;99334.41;7311014;19;129027;-37
2022/08/04 03:03:27;;;;;;;13.63;2.50;;;;;;;26.48;57.57;99330.75;7312694;19;130956;-34
2022/08/04 03:06:00;;;;;;;30.45;3.78;;;;;;;26.48;57.07;99328.13;7313426;19;130065;-32
2022/08/04 03:09:02;;;;;;;34.38;4.50;;;;;;;26.52;57.48;99334.69;7310826;19;130672;-36
2022/08/04 03:12:03;;;;;;;28.17;3.55;;;;;;;26.52;57.52;99332.06;7312407;19;128838;-35
2022/08/04 03:14:50;;;;;;;24.40;3.25;;;;;;;26.48;57.08;99328.13;7313730;19;129478;-35
2022/08/04 03:17:50;;;;;;;18.90;3.08;;;;;;;26.54;57.84;99334.50;7312805;19;129064;-37
2022/08/04 03:20:15;;;;;;;10.63;2.40;;;;;;;26.42;56.32;99323.56;7309673;19;129313;-28
2022/08/04 03:23:06;;;;;;;16.10;2.60;;;;;;;26.51;57.62;99335.66;7314333;19;129407;-33
2022/08/04 03:25:46;;;;;;;26.27;3.83;;;;;;;26.53;57.58;99343.41;7312699;19;129090;-34
2022/08/04 03:28:47;;;;;;;51.05;6.07;;;;;;;26.52;57.59;99342.59;7310967;19;131394;-35
2022/08/04 03:31:34;;;;;;;28.90;3.60;;;;;;;26.46;57.14;99327.47;7312366;19;130967;-33
2022/08/04 03:34:23;;;;;;;20.30;3.22;;;;;;;26.53;57.41;99340.75;7312770;19;129240;-37
2022/08/04 03:37:16;;;;;;;17.85;2.70;;;;;;;26.51;57.85;99337.50;7311055;19;129403;-32
2022/08/04 03:40:14;;;;;;;24.58;3.25;;;;;;;26.46;57.25;99331.94;7309472;19;131067;-30
2022/08/04 03:43:07;;;;;;;21.75;3.13;;;;;;;26.52;57.16;99337.31;7306535;19;130084;-35
2022/08/04 03:45:59;;;;;;;24.17;3.10;;;;;;;26.53;57.69;99349.50;7310467;19;129780;-33
2022/08/04 03:48:30;;;;;;;36.50;4.55;;;;;;;26.51;56.58;99346.22;7307599;19;129058;-35
2022/08/04 03:54:16;;;;;;;80.93;10.05;;;;;;;26.53;56.87;99341.59;7306349;19;129743;-37
2022/08/04 03:57:01;;;;;;;15.95;2.67;;;;;;;26.51;57.67;99350.69;7308771;19;130215;-31
2022/08/04 03:59:32;;;;;;;14.80;2.75;;;;;;;26.51;57.27;99351.47;7308051;19;129279;-31
2022/08/04 04:02:16;;;;;;;16.90;2.85;;;;;;;26.52;56.21;99347.03;7306324;19;129219;-35
2022/08/04 04:04:49;;;;;;;24.27;3.33;;;;;;;26.51;56.40;99350.69;7311389;19;130345;-35
2022/08/04 04:07:44;;;;;;;33.90;4.85;;;;;;;26.48;56.85;99351.00;7307533;19;130219;-33
2022/08/04 04:10:25;;;;;;;20.65;3.20;;;;;;;26.49;55.22;99350.03;7302337;19;130378;-32
2022/08/04 04:13:37;;;;;;;51.58;6.13;;;;;;;26.52;57.67;99350.50;7302426;19;130198;-38
2022/08/04 04:16:46;;;;;;;16.77;2.65;;;;;;;26.53;57.30;99349.50;7302772;19;130673;-39
2022/08/04 04:19:36;;;;;;;27.65;3.80;;;;;;;26.45;57.51;99336.38;7305482;19;129669;-33
2022/08/04 04:22:26;;;;;;;45.65;5.43;;;;;;;26.51;56.97;99346.22;7304577;19;128938;-43
2022/08/04 04:25:35;;;;;;;30.55;4.20;;;;;;;26.51;57.26;99346.22;7304126;19;131486;-40
2022/08/04 04:28:37;;;;;;;28.50;4.00;;;;;;;26.52;57.70;99347.03;7305726;19;130554;-34
2022/08/04 04:31:32;;;;;;;13.10;2.58;;;;;;;26.54;56.78;99350.31;7310707;19;129584;-32
2022/08/04 04:34:42;;;;;;;62.80;7.60;;;;;;;26.51;56.99;99348.06;7306059;19;129542;-38
2022/08/04 04:37:23;;;;;;;22.25;3.35;;;;;;;26.52;56.98;99362.88;7282120;19;131546;-38
2022/08/04 04:40:09;;;;;;;18.85;3.30;;;;;;;26.52;57.12;99358.41;7304315;19;131120;-36
2022/08/04 04:42:58;;;;;;;34.95;4.43;;;;;;;26.53;57.33;99349.50;7282071;19;130621;-37
2022/08/04 04:45:33;;;;;;;47.78;6.03;;;;;;;26.53;57.14;99362.69;7308420;19;129550;-40
2022/08/04 04:48:46;;;;;;;18.98;3.10;;;;;;;26.55;56.75;99365.13;7302324;19;131421;-40
2022/08/04 04:51:15;;;;;;;16.55;2.88;;;;;;;26.44;56.43;99345.31;7305721;19;130508;-29
2022/08/04 04:54:09;;;;;;;21.20;3.42;;;;;;;26.51;56.94;99356.75;7306221;19;129286;-35
2022/08/04 04:56:53;;;;;;;40.75;5.38;;;;;;;26.52;56.80;99363.69;7301356;19;132810;-36
2022/08/04 04:59:27;;;;;;;40.05;5.57;;;;;;;26.51;56.98;99367.31;7301368;19;130278;-39
2022/08/04 05:02:20;;;;;;;22.58;3.58;;;;;;;26.51;56.76;99367.31;7301113;19;130845;-38
2022/08/04 05:05:27;;;;;;;31.23;4.22;;;;;;;26.55;57.23;99373.88;7304346;19;130368;-38
2022/08/04 05:08:17;;;;;;;44.67;5.80;;;;;;;26.55;57.50;99368.59;7304183;19;129577;-38
2022/08/04 05:10:57;;;;;;;33.75;4.32;;;;;;;26.53;56.91;99370.59;7306341;19;129061;-38
2022/08/04 05:13:43;;;;;;;19.67;3.30;;;;;;;26.57;57.30;99368.44;7306715;19;129385;-37
2022/08/04 05:16:17;;;;;;;90.10;11.18;;;;;;;26.53;56.23;99370.59;7305266;19;130481;-37
2022/08/04 05:18:48;;;;;;;33.35;4.70;;;;;;;26.51;56.83;99366.50;7305620;19;129407;-39
2022/08/04 05:21:29;;;;;;;19.40;3.42;;;;;;;26.52;57.18;99366.34;7307936;19;131726;-37
2022/08/04 05:24:01;;;;;;;26.08;4.00;;;;;;;26.49;56.52;99366.69;7309282;19;129663;-37
2022/08/04 05:26:31;;;;;;;38.38;5.15;;;;;;;26.51;56.88;99359.41;7310664;19;129353;-38
2022/08/04 05:29:01;;;;;;;23.80;4.22;;;;;;;26.49;56.96;99361.41;7314501;19;129836;-37
2022/08/04 05:31:41;;;;;;;20.15;3.47;;;;;;;26.54;57.68;99361.69;7313891;19;131193;-38
2022/08/04 05:34:19;;;;;;;19.25;3.33;;;;;;;26.52;57.22;99361.06;7314400;19;130050;-38
2022/08/04 05:36:51;;;;;;;30.65;4.80;;;;;;;26.52;56.62;99360.22;7317426;19;129696;-39
2022/08/04 05:39:23;;;;;;;29.85;4.28;;;;;;;26.53;56.98;99360.03;7309138;19;129987;-37
2022/08/04 05:41:49;;;;;;;32.38;4.63;;;;;;;26.51;56.43;99354.13;7317355;19;129405;-38
2022/08/04 05:44:17;;;;;;;56.05;7.30;;;;;;;26.52;56.16;99358.41;7313957;19;131022;-37
2022/08/04 05:46:46;;;;;;;80.88;9.45;;;;;;;26.51;55.82;99355.97;7311151;19;129883;-38
2022/08/04 05:49:12;;;;;;;29.25;4.70;;;;;;;26.51;56.00;99367.31;7314394;19;129281;-38
2022/08/04 05:51:38;;;;;;;28.02;4.00;;;;;;;26.52;55.56;99365.50;7311155;19;129704;-38
2022/08/04 05:54:05;;;;;;;14.63;3.47;;;;;;;26.51;56.16;99362.03;7317144;19;130221;-37
2022/08/04 05:56:32;;;;;;;34.70;5.05;;;;;;;26.52;56.15;99358.41;7313193;19;130219;-40
2022/08/04 05:59:00;;;;;;;18.27;3.17;;;;;;;26.52;56.12;99366.34;7315595;19;129476;-37
2022/08/04 06:01:27;;;;;;;65.85;7.57;;;;;;;26.51;56.29;99362.03;7311958;19;129011;-38
2022/08/04 06:03:55;;;;;;;26.75;3.78;;;;;;;26.50;56.74;99363.03;7316306;19;129216;-38
2022/08/04 06:06:21;;;;;;;24.55;3.92;;;;;;;26.50;56.67;99363.03;7316933;19;130239;-37
2022/08/04 06:08:47;;;;;;;19.92;3.05;;;;;;;26.53;56.27;99361.84;7314984;19;129149;-38
2022/08/04 06:11:13;;;;;;;79.93;9.53;;;;;;;26.52;56.00;99361.06;7314354;19;129681;-38
2022/08/04 06:13:43;;;;;;;15.88;2.58;;;;;;;26.52;57.36;99368.13;7316558;19;129495;-38
2022/08/04 06:16:12;;;;;;;15.75;2.72;;;;;;;26.45;56.79;99357.47;7318062;19;129197;-38
2022/08/04 06:18:39;;;;;;;28.08;3.97;;;;;;;26.50;56.68;99365.69;7313094;19;130389;-38
2022/08/04 06:21:08;;;;;;;19.48;2.85;;;;;;;26.51;56.75;99369.16;7317146;19;130223;-37
2022/08/04 06:23:36;;;;;;;24.05;3.42;;;;;;;26.50;56.54;99370.94;7316297;19;131272;-37
2022/08/04 06:26:03;;;;;;;13.15;2.50;;;;;;;26.52;57.03;99371.59;7316553;19;129369;-38
2022/08/04 06:28:30;;;;;;;11.00;2.40;;;;;;;26.52;57.10;99368.13;7314028;19;129104;-38
2022/08/04 06:31:02;;;;;;;27.58;3.90;;;;;;;26.51;56.52;99377.06;7314785;19;131071;-39
2022/08/04 06:33:33;;;;;;;40.47;4.38;;;;;;;26.51;57.58;99372.56;7316475;19;130497;-38
2022/08/04 06:36:01;;;;;;;28.15;4.13;;;;;;;26.46;56.61;99363.59;7314884;19;129023;-38
2022/08/04 06:38:29;;;;;;;122.63;14.13;;;;;;;26.50;57.35;99381.50;7306558;19;129609;-37
2022/08/04 06:41:02;;;;;;;36.17;4.30;;;;;;;26.49;56.59;99379.88;7312676;19;129451;-39
2022/08/04 06:43:28;;;;;;;43.40;4.97;;;;;;;26.48;57.12;99378.22;7314885;19;129340;-38
2022/08/04 06:45:56;;;;;;;11.52;2.25;;;;;;;26.51;57.38;99377.84;7316461;19;130851;-37
2022/08/04 06:48:23;;;;;;;13.32;2.50;;;;;;;26.53;56.98;99381.13;7315450;19;128864;-38
2022/08/04 06:50:50;;;;;;;25.83;3.30;;;;;;;26.53;57.61;99380.31;7315726;19;129227;-38
2022/08/04 06:53:16;;;;;;;18.80;3.08;;;;;;;26.50;57.80;99370.94;7315209;19;129851;-38
2022/08/04 06:55:44;;;;;;;29.92;3.55;;;;;;;26.54;57.43;99377.50;7314559;19;129830;-39
2022/08/04 06:58:10;;;;;;;40.60;5.28;;;;;;;26.55;56.89;99373.06;7312831;19;128908;-37
2022/08/04 07:00:36;;;;;;;16.77;2.65;;;;;;;26.54;57.38;99377.50;7313655;19;129088;-39
2022/08/04 07:03:03;;;;;;;20.52;2.92;;;;;;;26.55;56.81;99373.88;7314526;19;131421;-37
2022/08/04 07:05:29;;;;;;;18.48;2.80;;;;;;;26.53;57.17;99370.59;7315492;19;128815;-38
2022/08/04 07:07:55;;;;;;;;;;;;;;;26.68;57.92;99379.41;7316044;19;129508;-37
2022/08/04 07:10:22;;;;;;;19.33;2.92;;;;;;;26.49;56.97;99352.69;7313612;19;129416;-36
2022/08/04 07:12:48;;;;;;;21.73;3.47;;;;;;;26.53;57.13;99375.88;7315544;19;130496;-39
2022/08/04 07:15:15;;;;;;;18.23;2.75;;;;;;;26.51;57.89;99362.03;7317139;19;129164;-38
2022/08/04 07:17:42;;;;;;;15.73;2.50;;;;;;;26.52;56.93;99368.97;7314957;19;129284;-38
2022/08/04 07:20:07;;;;;;;25.70;3.60;;;;;;;26.53;57.20;99369.75;7313062;19;129023;-39
2022/08/04 07:22:33;;;;;;;22.83;3.23;;;;;;;26.55;57.39;99367.78;7316927;19;129321;-39
2022/08/04 07:24:59;;;;;;;23.47;3.03;;;;;;;26.54;57.41;99360.88;7316502;19;129123;-36
2022/08/04 07:27:25;;;;;;;15.30;2.37;;;;;;;26.56;56.84;99364.97;7317547;19;130309;-38
2022/08/04 07:29:51;;;;;;;17.00;2.63;;;;;;;26.48;57.06;99351.84;7310774;19;129433;-39
2022/08/04 07:32:19;;;;;;;15.10;2.60;;;;;;;26.55;57.82;99363.34;7315722;19;130492;-38
2022/08/04 07:34:47;;;;;;;17.05;2.95;;;;;;;26.55;57.29;99358.06;7315563;19;129247;-38
2022/08/04 07:37:13;;;;;;;13.90;2.42;;;;;;;26.55;56.92;99358.06;7314890;19;129026;-37
2022/08/04 07:39:39;;;;;;;19.67;2.97;;;;;;;26.47;57.27;99350.22;7312655;19;129865;-38
2022/08/04 07:42:05;;;;;;;22.63;3.10;;;;;;;26.54;57.60;99359.03;7315634;19;130339;-39
2022/08/04 07:44:31;;;;;;;14.93;2.30;;;;;;;26.57;57.58;99358.72;7315989;19;129111;-39
2022/08/04 07:46:58;;;;;;;27.52;3.70;;;;;;;26.55;57.13;99352.78;7315409;19;130260;-38
2022/08/04 07:49:25;;;;;;;29.48;3.58;;;;;;;26.49;57.21;99347.41;7312566;19;129061;-38
2022/08/04 07:51:51;;;;;;;26.85;3.55;;;;;;;26.48;57.63;99345.75;7315641;19;129277;-39
2022/08/04 07:54:17;;;;;;;37.93;4.37;;;;;;;26.55;57.10;99362.50;7315104;19;129000;-38
2022/08/04 07:56:43;;;;;;;18.83;2.57;;;;;;;26.55;57.33;99352.78;7314665;19;129113;-38
2022/08/04 07:59:08;;;;;;;15.93;2.47;;;;;;;26.55;57.11;99358.06;7313718;19;130704;-39
2022/08/04 08:01:35;;;;;;;32.83;3.80;;;;;;;26.48;57.53;99343.09;7314795;19;129162;-36
2022/08/04 08:04:01;;;;;;;19.45;3.13;;;;;;;26.55;57.16;99352.78;7315841;19;129125;-37
2022/08/04 08:06:28;;;;;;;17.08;2.42;;;;;;;26.53;57.25;99357.41;7315261;19;129586;-39
2022/08/04 08:08:57;;;;;;;;;;;;;;;26.63;57.78;99355.34;7314931;19;130147;-39
2022/08/04 08:11:22;;;;;;;15.20;2.25;;;;;;;26.56;56.44;99353.63;7315041;19;131223;-37
2022/08/04 08:13:48;;;;;;;23.10;3.03;;;;;;;26.55;57.18;99347.50;7315114;19;129608;-37
2022/08/04 08:16:14;;;;;;;19.90;2.93;;;;;;;26.54;56.31;99345.84;7315187;19;129037;-37
2022/08/04 08:18:40;;;;;;;20.43;2.97;;;;;;;26.51;56.92;99338.31;7311134;19;130309;-38
2022/08/04 08:21:06;;;;;;;15.17;2.83;;;;;;;26.53;56.65;99344.22;7313879;19;132367;-39
2022/08/04 08:23:34;;;;;;;18.52;2.83;;;;;;;26.53;57.40;99340.75;7314054;19;129273;-38
2022/08/04 08:26:00;;;;;;;13.43;2.45;;;;;;;26.52;56.28;99337.31;7314155;19;129134;-37
2022/08/04 08:28:25;;;;;;;18.83;2.90;;;;;;;26.56;57.49;99343.88;7312456;19;130413;-37
2022/08/04 08:30:51;;;;;;;24.90;3.03;;;;;;;26.59;57.36;99343.50;7312600;19;129231;-38
2022/08/04 08:33:17;;;;;;;22.20;3.13;;;;;;;26.54;57.39;99335.31;7314436;19;130376;-38
2022/08/04 08:35:45;;;;;;;23.15;3.15;;;;;;;26.53;56.97;99338.94;7313398;19;130348;-38
2022/08/04 08:38:15;;;;;;;32.45;4.28;;;;;;;26.55;57.88;99336.97;7311572;19;130110;-39
2022/08/04 08:40:55;;;;;;;18.13;2.53;;;;;;;26.57;58.36;99334.97;7311067;19;130201;-39
2022/08/04 08:43:45;;;;;;;24.05;3.30;;;;;;;26.62;57.72;99337.06;7314611;19;131726;-37
2022/08/04 08:46:41;;;;;;;15.10;2.25;;;;;;;26.55;57.91;99336.97;7314904;19;131587;-36
2022/08/04 08:49:21;;;;;;;15.25;2.60;;;;;;;26.56;58.02;99333.31;7311561;19;131694;-37
2022/08/04 08:51:58;;;;;;;14.40;2.35;;;;;;;26.54;58.15;99335.31;7313484;19;129816;-38
2022/08/04 08:54:49;;;;;;;15.10;2.65;;;;;;;26.52;58.38;99326.78;7312688;19;129276;-35
2022/08/04 08:57:51;;;;;;;17.08;2.53;;;;;;;26.61;58.21;99336.25;7312266;19;128919;-38
2022/08/04 09:00:36;;;;;;;29.27;3.38;;;;;;;26.59;58.29;99335.59;7311534;19;130303;-38
2022/08/04 09:03:23;;;;;;;23.25;2.95;;;;;;;26.50;58.17;99320.84;7319582;19;130359;-38
2022/08/04 09:06:21;;;;;;;22.92;3.00;;;;;;;26.56;58.21;99328.03;7320412;19;129612;-37
2022/08/04 09:09:05;;;;;;;24.98;3.10;;;;;;;26.56;57.96;99328.03;7317618;19;129275;-37
2022/08/04 09:11:42;;;;;;;18.83;2.67;;;;;;;26.57;57.99;99331.50;7319403;19;129344;-37
2022/08/04 09:14:19;;;;;;;11.63;1.95;;;;;;;26.58;58.27;99339.25;7320210;19;129247;-36
2022/08/04 09:16:56;;;;;;;31.37;3.60;;;;;;;26.52;58.17;99321.50;7320195;19;129368;-37
2022/08/04 09:19:32;;;;;;;16.70;2.30;;;;;;;26.57;58.34;99334.16;7317133;19;129566;-38
2022/08/04 09:22:02;;;;;;;21.50;2.93;;;;;;;26.52;57.82;99326.78;7319766;19;129633;-39
2022/08/04 09:24:59;;;;;;;27.27;3.40;;;;;;;26.57;58.54;99334.97;7319456;19;129637;-38
2022/08/04 09:27:45;;;;;;;7.93;1.67;;;;;;;26.59;57.72;99338.22;7318885;19;129078;-37
2022/08/04 09:30:14;;;;;;;16.83;2.97;;;;;;;26.57;57.68;99336.78;7317499;19;129507;-39
2022/08/04 09:32:45;;;;;;;17.73;2.42;;;;;;;26.58;57.85;99330.50;7319655;19;129177;-38
2022/08/04 09:36:02;;;;;;;17.35;2.60;;;;;;;26.59;58.29;99330.31;7320862;19;129931;-38
2022/08/04 09:38:45;;;;;;;24.08;3.15;;;;;;;26.53;57.54;99317.84;7313909;19;129282;-36
2022/08/04 09:41:29;;;;;;;14.80;2.33;;;;;;;26.53;58.47;99328.41;7319219;19;128631;-38
2022/08/04 09:44:06;;;;;;;18.17;2.60;;;;;;;26.49;58.33;99303.41;7318183;19;130975;-37
2022/08/04 09:46:50;;;;;;;16.45;2.38;;;;;;;26.56;56.96;99316.69;7319543;19;129740;-39
2022/08/04 09:49:38;;;;;;;10.95;2.08;;;;;;;26.56;58.05;99316.69;7318342;19;130438;-38
2022/08/04 09:52:10;;;;;;;;;;;;;;;26.65;57.72;99305.06;7320006;19;130076;-38
2022/08/04 09:54:56;;;;;;;14.57;2.28;;;;;;;26.56;58.32;99312.22;7316446;19;131749;-38
2022/08/04 09:57:33;;;;;;;27.42;3.30;;;;;;;26.57;58.13;99308.59;7317047;19;129199;-37
2022/08/04 10:00:09;;;;;;;21.10;2.95;;;;;;;26.55;57.82;99315.03;7317073;19;129320;-39
2022/08/04 10:02:41;;;;;;;16.00;2.38;;;;;;;26.52;57.81;99310.97;7316230;19;128964;-38
2022/08/04 10:05:13;;;;;;;24.77;3.38;;;;;;;26.51;58.07;99319.84;7316564;19;129103;-39
2022/08/04 10:07:56;;;;;;;22.05;3.13;;;;;;;26.55;58.56;99310.59;7316234;19;130837;-38
2022/08/04 10:10:36;;;;;;;14.45;2.40;;;;;;;26.59;58.32;99301.31;7313705;19;128754;-37
2022/08/04 10:13:28;;;;;;;31.80;3.75;;;;;;;26.60;58.41;99302.97;7315134;19;128911;-38
2022/08/04 10:16:19;;;;;;;22.92;3.05;;;;;;;26.60;58.44;99294.22;7316077;19;130122;-39
2022/08/04 10:18:49;;;;;;;15.52;2.25;;;;;;;26.58;57.50;99296.22;7314690;19;131182;-38
2022/08/04 10:21:42;;;;;;;34.45;3.70;;;;;;;26.59;58.79;99290.75;7316781;19;128948;-39
2022/08/04 10:24:28;;;;;;;22.80;3.08;;;;;;;26.60;58.22;99288.97;7313902;19;129669;-38
2022/08/04 10:27:32;;;;;;;21.17;2.67;;;;;;;26.58;56.84;99290.94;7317092;19;129507;-38
2022/08/04 10:30:10;;;;;;;17.05;2.50;;;;;;;26.46;58.65;99282.66;7311136;19;130414;-38
2022/08/04 10:32:54;;;;;;;17.60;2.58;;;;;;;26.59;58.64;99290.75;7313808;19;129954;-40
2022/08/04 10:35:25;;;;;;;23.10;3.20;;;;;;;26.55;58.05;99284.22;7315205;19;129585;-38
2022/08/04 10:38:06;;;;;;;17.45;2.75;;;;;;;26.57;58.41;99286.69;7317100;19;130539;-36
2022/08/04 10:40:45;;;;;;;18.05;2.30;;;;;;;26.57;57.32;99286.69;7315038;19;131192;-39
2022/08/04 10:43:29;;;;;;;21.83;3.03;;;;;;;26.59;58.21;99289.97;7317152;19;128919;-40
2022/08/04 10:46:04;;;;;;;18.30;2.70;;;;;;;26.52;58.92;99289.03;7317053;19;129044;-38
2022/08/04 10:48:39;;;;;;;23.77;3.08;;;;;;;26.53;58.39;99280.94;7316373;19;130537;-38
2022/08/04 10:51:04;;;;;;;13.70;2.25;;;;;;;26.55;57.25;99278.94;7316211;19;129187;-38
2022/08/04 10:53:33;;;;;;;17.07;2.60;;;;;;;26.45;57.36;99257.28;7316324;19;129327;-36
2022/08/04 10:56:10;;;;;;;13.50;2.33;;;;;;;26.56;58.13;99263.97;7316646;19;128890;-38
2022/08/04 10:58:44;;;;;;;25.70;3.03;;;;;;;26.55;57.57;99268.41;7315253;19;129599;-38
2022/08/04 11:01:19;;;;;;;14.48;2.20;;;;;;;26.48;58.09;99254.28;7316794;19;129371;-39
2022/08/04 11:03:50;;;;;;;15.50;2.33;;;;;;;26.50;57.63;99260.22;7317194;19;129258;-38
2022/08/04 11:06:17;;;;;;;27.60;3.25;;;;;;;26.45;57.81;99259.09;7316612;19;130118;-37
2022/08/04 11:08:52;;;;;;;16.23;2.35;;;;;;;26.52;58.01;99274.03;7315722;19;131454;-38
2022/08/04 11:11:23;;;;;;;14.18;1.98;;;;;;;26.54;57.05;99277.28;7315512;19;129088;-38
2022/08/04 11:14:03;;;;;;;17.08;2.33;;;;;;;26.57;58.10;99271.69;7317497;19;129659;-38
2022/08/04 11:16:32;;;;;;;24.15;3.25;;;;;;;26.57;58.21;99262.94;7315961;19;128830;-36
2022/08/04 11:19:13;;;;;;;25.83;3.40;;;;;;;26.46;57.27;99252.84;7313593;19;129784;-38
2022/08/04 11:21:54;;;;;;;18.92;2.72;;;;;;;26.55;58.28;99263.13;7316123;19;129871;-38
2022/08/04 11:24:58;;;;;;;15.60;2.05;;;;;;;26.55;58.48;99264.94;7313259;19;129308;-39
2022/08/04 11:27:43;;;;;;;27.38;3.38;;;;;;;26.54;57.95;99260.69;7315413;19;131172;-38
2022/08/04 11:30:11;;;;;;;20.50;2.70;;;;;;;26.56;58.02;99248.94;7312879;19;129032;-38
2022/08/04 11:32:47;;;;;;;14.02;2.28;;;;;;;26.57;57.94;99261.16;7314843;19;129762;-39
2022/08/04 11:35:26;;;;;;;29.35;3.60;;;;;;;26.49;58.66;99253.31;7315284;19;129600;-38
2022/08/04 11:38:03;;;;;;;36.38;4.18;;;;;;;26.53;58.54;99251.94;7313269;19;128870;-39
2022/08/04 11:40:39;;;;;;;25.20;3.15;;;;;;;26.54;58.52;99256.19;7313790;19;129022;-38
2022/08/04 11:43:11;;;;;;;17.35;2.35;;;;;;;26.55;58.42;99249.94;7315861;19;131286;-38
2022/08/04 11:46:05;;;;;;;36.58;4.32;;;;;;;26.56;58.09;99254.22;7315521;19;129825;-38
2022/08/04 11:48:40;;;;;;;29.55;3.38;;;;;;;26.58;58.39;99257.50;7313856;19;129039;-36
2022/08/04 11:51:08;;;;;;;21.80;2.70;;;;;;;26.56;57.60;99256.84;7314824;19;129148;-38
2022/08/04 11:53:36;;;;;;;39.58;4.22;;;;;;;26.56;57.47;99264.75;7313975;19;131043;-38
2022/08/04 11:56:04;;;;;;;22.55;2.88;;;;;;;26.56;57.49;99259.47;7315770;19;129274;-37
2022/08/04 11:58:29;;;;;;;22.20;2.67;;;;;;;26.58;57.56;99254.84;7311905;19;129119;-37
2022/08/04 12:01:07;;;;;;;20.70;2.67;;;;;;;26.61;58.54;99253.69;7315241;19;130055;-38
2022/08/04 12:03:50;;;;;;;23.88;2.90;;;;;;;26.57;58.30;99250.59;7313446;19;129187;-38